sensor_id;sensor_type;location;lat;lon;timestamp;pressure;altitude;pressure_sealevel;temperature;humidity
30682;BME280;17439;48.092;11.842;2023-04-09T00:01:08;96012.03;;;6.34;64.32
30682;BME280;17439;48.092;11.842;2023-04-09T00:03:36;96005.31;;;6.37;64.07
30682;BME280;17439;48.092;11.842;2023-04-09T00:06:03;96013.13;;;6.39;63.95
30682;BME280;17439;48.092;11.842;2023-04-09T00:08:30;96013.91;;;6.39;64.00
30682;BME280;17439;48.092;11.842;2023-04-09T00:10:58;96009.38;;;6.40;64.02
30682;BME280;17439;48.092;11.842;2023-04-09T00:13:25;96015.53;;;6.40;64.05
30682;BME280;17439;48.092;11.842;2023-04-09T00:16:05;96017.16;;;6.41;63.91
30682;BME280;17439;48.092;11.842;2023-04-09T00:18:32;96011.22;;;6.39;63.79
30682;BME280;17439;48.092;11.842;2023-04-09T00:20:59;96016.63;;;6.39;63.91
30682;BME280;17439;48.092;11.842;2023-04-09T00:23:26;96011.75;;;6.36;64.08
30682;BME280;17439;48.092;11.842;2023-04-09T00:25:53;96010.69;;;6.37;64.11
30682;BME280;17439;48.092;11.842;2023-04-09T00:28:19;96006.66;;;6.34;64.18
30682;BME280;17439;48.092;11.842;2023-04-09T00:30:46;96009.34;;;6.34;64.25
30682;BME280;17439;48.092;11.842;2023-04-09T00:33:12;96004.50;;;6.37;64.23
30682;BME280;17439;48.092;11.842;2023-04-09T00:35:39;96008.00;;;6.37;64.17
30682;BME280;17439;48.092;11.842;2023-04-09T00:38:06;96002.63;;;6.37;63.93
30682;BME280;17439;48.092;11.842;2023-04-09T00:40:33;96005.84;;;6.39;63.93
30682;BME280;17439;48.092;11.842;2023-04-09T00:42:59;96005.84;;;6.39;63.95
30682;BME280;17439;48.092;11.842;2023-04-09T00:45:26;96002.09;;;6.40;63.99
30682;BME280;17439;48.092;11.842;2023-04-09T00:47:53;96004.78;;;6.40;64.20
30682;BME280;17439;48.092;11.842;2023-04-09T00:50:20;96011.78;;;6.41;64.17
30682;BME280;17439;48.092;11.842;2023-04-09T00:52:47;96003.72;;;6.41;64.21
30682;BME280;17439;48.092;11.842;2023-04-09T00:55:13;96000.19;;;6.41;64.04
30682;BME280;17439;48.092;11.842;2023-04-09T00:57:40;96004.50;;;6.42;64.21
30682;BME280;17439;48.092;11.842;2023-04-09T01:00:07;96003.44;;;6.43;64.10
30682;BME280;17439;48.092;11.842;2023-04-09T01:02:34;95999.91;;;6.42;64.00
30682;BME280;17439;48.092;11.842;2023-04-09T01:05:02;95998.56;;;6.45;63.91
30682;BME280;17439;48.092;11.842;2023-04-09T01:07:35;96002.34;;;6.44;63.82
30682;BME280;17439;48.092;11.842;2023-04-09T01:13:06;96002.59;;;6.42;64.75
30682;BME280;17439;48.092;11.842;2023-04-09T01:15:43;96004.50;;;6.42;64.54
30682;BME280;17439;48.092;11.842;2023-04-09T01:21:05;96004.78;;;6.40;64.52
30682;BME280;17439;48.092;11.842;2023-04-09T01:26:53;96001.56;;;6.38;64.58
30682;BME280;17439;48.092;11.842;2023-04-09T01:29:26;96004.25;;;6.38;64.40
30682;BME280;17439;48.092;11.842;2023-04-09T01:31:56;96000.44;;;6.39;64.37
30682;BME280;17439;48.092;11.842;2023-04-09T01:34:26;95998.59;;;6.40;64.33
30682;BME280;17439;48.092;11.842;2023-04-09T01:36:55;95995.91;;;6.40;64.48
30682;BME280;17439;48.092;11.842;2023-04-09T01:39:24;96003.72;;;6.41;64.30
30682;BME280;17439;48.092;11.842;2023-04-09T01:41:51;96005.31;;;6.42;63.92
30682;BME280;17439;48.092;11.842;2023-04-09T01:44:19;96005.88;;;6.44;63.87
30682;BME280;17439;48.092;11.842;2023-04-09T01:46:47;96003.97;;;6.45;63.80
30682;BME280;17439;48.092;11.842;2023-04-09T01:49:16;96004.75;;;6.45;63.72
30682;BME280;17439;48.092;11.842;2023-04-09T01:51:43;96004.25;;;6.38;64.09
30682;BME280;17439;48.092;11.842;2023-04-09T01:54:10;96003.44;;;6.43;63.61
30682;BME280;17439;48.092;11.842;2023-04-09T01:56:44;96008.56;;;6.44;63.86
30682;BME280;17439;48.092;11.842;2023-04-09T01:59:11;96009.63;;;6.43;63.66
30682;BME280;17439;48.092;11.842;2023-04-09T02:02:08;96009.09;;;6.41;64.14
30682;BME280;17439;48.092;11.842;2023-04-09T02:04:34;96015.53;;;6.40;64.34
30682;BME280;17439;48.092;11.842;2023-04-09T02:09:49;96013.13;;;6.39;64.24
30682;BME280;17439;48.092;11.842;2023-04-09T02:12:19;96009.63;;;6.38;64.10
30682;BME280;17439;48.092;11.842;2023-04-09T02:14:50;96013.13;;;6.39;64.53
30682;BME280;17439;48.092;11.842;2023-04-09T02:17:17;96002.63;;;6.37;64.46
30682;BME280;17439;48.092;11.842;2023-04-09T02:19:46;96005.31;;;6.37;64.39
30682;BME280;17439;48.092;11.842;2023-04-09T02:22:13;95999.94;;;6.32;64.33
30682;BME280;17439;48.092;11.842;2023-04-09T02:24:40;96007.22;;;6.37;64.14
30682;BME280;17439;48.092;11.842;2023-04-09T02:27:07;95999.13;;;6.37;64.23
30682;BME280;17439;48.092;11.842;2023-04-09T02:29:34;95999.94;;;6.37;64.25
30682;BME280;17439;48.092;11.842;2023-04-09T02:32:00;96003.69;;;6.36;64.32
30682;BME280;17439;48.092;11.842;2023-04-09T02:34:27;96001.81;;;6.37;64.09
30682;BME280;17439;48.092;11.842;2023-04-09T02:36:54;96001.00;;;6.36;64.02
30682;BME280;17439;48.092;11.842;2023-04-09T02:39:21;95998.03;;;6.38;64.06
30682;BME280;17439;48.092;11.842;2023-04-09T02:41:48;96005.03;;;6.39;64.08
30682;BME280;17439;48.092;11.842;2023-04-09T02:44:14;95999.66;;;6.39;64.15
30682;BME280;17439;48.092;11.842;2023-04-09T02:46:43;95994.53;;;6.37;64.27
30682;BME280;17439;48.092;11.842;2023-04-09T02:49:10;95995.34;;;6.38;64.28
30682;BME280;17439;48.092;11.842;2023-04-09T02:51:37;95992.91;;;6.36;64.34
30682;BME280;17439;48.092;11.842;2023-04-09T02:54:03;95979.44;;;6.36;64.28
30682;BME280;17439;48.092;11.842;2023-04-09T02:56:30;95977.03;;;6.34;64.48
30682;BME280;17439;48.092;11.842;2023-04-09T02:58:57;95985.09;;;6.34;64.29
30682;BME280;17439;48.092;11.842;2023-04-09T03:01:24;95996.16;;;6.38;64.07
30682;BME280;17439;48.092;11.842;2023-04-09T03:03:51;96007.47;;;6.40;63.52
30682;BME280;17439;48.092;11.842;2023-04-09T03:06:18;96005.31;;;6.37;63.52
30682;BME280;17439;48.092;11.842;2023-04-09T03:08:44;96009.34;;;6.34;63.59
30682;BME280;17439;48.092;11.842;2023-04-09T03:11:11;96002.63;;;6.32;63.72
30682;BME280;17439;48.092;11.842;2023-04-09T03:13:37;96003.16;;;6.29;63.68
30682;BME280;17439;48.092;11.842;2023-04-09T03:16:04;95998.84;;;6.28;63.67
30682;BME280;17439;48.092;11.842;2023-04-09T03:18:31;96001.00;;;6.26;63.73
30682;BME280;17439;48.092;11.842;2023-04-09T03:20:58;96007.47;;;6.25;63.54
30682;BME280;17439;48.092;11.842;2023-04-09T03:23:27;95999.91;;;6.22;63.32
30682;BME280;17439;48.092;11.842;2023-04-09T03:26:04;96003.16;;;6.18;63.78
30682;BME280;17439;48.092;11.842;2023-04-09T03:28:38;96001.00;;;6.15;63.23
30682;BME280;17439;48.092;11.842;2023-04-09T03:31:05;95999.41;;;6.09;63.11
30682;BME280;17439;48.092;11.842;2023-04-09T03:33:36;95993.19;;;6.04;63.13
30682;BME280;17439;48.092;11.842;2023-04-09T03:36:03;95988.09;;;5.97;63.13
30682;BME280;17439;48.092;11.842;2023-04-09T03:38:49;95989.13;;;5.91;63.16
30682;BME280;17439;48.092;11.842;2023-04-09T03:41:26;95997.19;;;5.86;63.33
30682;BME280;17439;48.092;11.842;2023-04-09T03:43:54;95993.41;;;5.81;63.39
30682;BME280;17439;48.092;11.842;2023-04-09T03:46:25;96000.41;;;5.77;63.47
30682;BME280;17439;48.092;11.842;2023-04-09T03:48:53;96005.75;;;5.72;63.70
30682;BME280;17439;48.092;11.842;2023-04-09T03:51:23;96003.59;;;5.69;63.62
30682;BME280;17439;48.092;11.842;2023-04-09T03:53:54;96002.28;;;5.67;63.87
30682;BME280;17439;48.092;11.842;2023-04-09T03:56:21;96006.28;;;5.64;63.94
30682;BME280;17439;48.092;11.842;2023-04-09T03:58:48;96009.50;;;5.61;64.00
30682;BME280;17439;48.092;11.842;2023-04-09T04:01:16;96010.88;;;5.58;64.11
30682;BME280;17439;48.092;11.842;2023-04-09T04:03:52;96007.34;;;5.58;64.10
30682;BME280;17439;48.092;11.842;2023-04-09T04:06:24;96005.75;;;5.57;64.27
30682;BME280;17439;48.092;11.842;2023-04-09T04:09:08;96005.75;;;5.57;64.33
30682;BME280;17439;48.092;11.842;2023-04-09T04:11:47;96007.59;;;5.56;64.34
30682;BME280;17439;48.092;11.842;2023-04-09T04:14:15;96016.50;;;5.57;64.41
30682;BME280;17439;48.092;11.842;2023-04-09T04:16:46;96018.09;;;5.58;64.52
30682;BME280;17439;48.092;11.842;2023-04-09T04:19:16;96014.34;;;5.59;64.42
30682;BME280;17439;48.092;11.842;2023-04-09T04:21:46;96011.41;;;5.60;64.65
30682;BME280;17439;48.092;11.842;2023-04-09T04:24:14;96010.31;;;5.61;64.69
30682;BME280;17439;48.092;11.842;2023-04-09T04:26:40;96012.72;;;5.63;64.92
30682;BME280;17439;48.092;11.842;2023-04-09T04:29:10;96012.19;;;5.66;65.06
30682;BME280;17439;48.092;11.842;2023-04-09T04:31:49;96006.28;;;5.69;64.98
30682;BME280;17439;48.092;11.842;2023-04-09T04:34:19;96003.06;;;5.72;65.20
30682;BME280;17439;48.092;11.842;2023-04-09T04:36:52;95995.56;;;5.74;65.03
30682;BME280;17439;48.092;11.842;2023-04-09T04:39:19;95990.97;;;5.75;65.33
30682;BME280;17439;48.092;11.842;2023-04-09T04:41:54;95993.13;;;5.78;65.24
30682;BME280;17439;48.092;11.842;2023-04-09T04:44:24;96006.06;;;5.81;65.00
30682;BME280;17439;48.092;11.842;2023-04-09T04:46:57;96025.97;;;5.85;64.75
30682;BME280;17439;48.092;11.842;2023-04-09T04:49:24;96030.28;;;5.86;64.54
30682;BME280;17439;48.092;11.842;2023-04-09T04:51:51;96024.63;;;5.88;64.51
30682;BME280;17439;48.092;11.842;2023-04-09T04:54:18;96032.72;;;5.88;64.46
30682;BME280;17439;48.092;11.842;2023-04-09T04:56:49;96028.94;;;5.89;64.45
30682;BME280;17439;48.092;11.842;2023-04-09T04:59:37;96033.78;;;5.87;64.38
30682;BME280;17439;48.092;11.842;2023-04-09T05:02:07;96029.47;;;5.86;64.35
30682;BME280;17439;48.092;11.842;2023-04-09T05:04:44;96035.94;;;5.85;64.30
30682;BME280;17439;48.092;11.842;2023-04-09T05:07:14;96039.41;;;5.85;64.06
30682;BME280;17439;48.092;11.842;2023-04-09T05:09:48;96041.56;;;5.83;64.10
30682;BME280;17439;48.092;11.842;2023-04-09T05:12:14;96042.91;;;5.80;64.41
30682;BME280;17439;48.092;11.842;2023-04-09T05:14:41;96036.72;;;5.80;64.77
30682;BME280;17439;48.092;11.842;2023-04-09T05:17:08;96034.84;;;5.80;64.91
30682;BME280;17439;48.092;11.842;2023-04-09T05:19:43;96034.31;;;5.78;65.18
30682;BME280;17439;48.092;11.842;2023-04-09T05:22:11;96029.97;;;5.72;65.92
30682;BME280;17439;48.092;11.842;2023-04-09T05:24:37;96030.53;;;5.79;65.34
30682;BME280;17439;48.092;11.842;2023-04-09T05:27:04;96032.72;;;5.82;65.71
30682;BME280;17439;48.092;11.842;2023-04-09T05:29:31;96027.84;;;5.85;65.78
30682;BME280;17439;48.092;11.842;2023-04-09T05:31:58;96021.94;;;5.88;65.70
30682;BME280;17439;48.092;11.842;2023-04-09T05:34:33;96022.47;;;5.90;65.58
30682;BME280;17439;48.092;11.842;2023-04-09T05:37:00;96021.16;;;5.92;65.53
30682;BME280;17439;48.092;11.842;2023-04-09T05:39:26;96022.47;;;5.95;65.37
30682;BME280;17439;48.092;11.842;2023-04-09T05:41:54;96033.84;;;5.97;65.27
30682;BME280;17439;48.092;11.842;2023-04-09T05:44:20;96042.97;;;6.01;64.96
30682;BME280;17439;48.092;11.842;2023-04-09T05:46:49;96048.91;;;6.03;65.08
30682;BME280;17439;48.092;11.842;2023-04-09T05:49:21;96055.63;;;6.06;65.06
30682;BME280;17439;48.092;11.842;2023-04-09T05:51:51;96050.81;;;6.08;65.19
30682;BME280;17439;48.092;11.842;2023-04-09T05:54:23;96058.06;;;6.12;65.40
30682;BME280;17439;48.092;11.842;2023-04-09T05:56:50;96057.78;;;6.14;65.40
30682;BME280;17439;48.092;11.842;2023-04-09T05:59:17;96054.56;;;6.17;65.21
30682;BME280;17439;48.092;11.842;2023-04-09T06:01:44;96066.97;;;6.18;65.16
30682;BME280;17439;48.092;11.842;2023-04-09T06:04:10;96069.94;;;6.22;65.21
30682;BME280;17439;48.092;11.842;2023-04-09T06:06:38;96062.41;;;6.24;65.48
30682;BME280;17439;48.092;11.842;2023-04-09T06:09:04;96061.31;;;6.30;65.63
30682;BME280;17439;48.092;11.842;2023-04-09T06:11:31;96067.25;;;6.37;65.67
30682;BME280;17439;48.092;11.842;2023-04-09T06:13:59;96063.75;;;6.42;65.74
30682;BME280;17439;48.092;11.842;2023-04-09T06:16:25;96065.38;;;6.48;65.65
30682;BME280;17439;48.092;11.842;2023-04-09T06:18:52;96059.19;;;6.52;65.50
30682;BME280;17439;48.092;11.842;2023-04-09T06:21:19;96061.06;;;6.57;65.37
30682;BME280;17439;48.092;11.842;2023-04-09T06:23:45;96055.69;;;6.62;65.59
30682;BME280;17439;48.092;11.842;2023-04-09T06:26:12;96057.56;;;6.67;65.42
30682;BME280;17439;48.092;11.842;2023-04-09T06:28:38;96064.56;;;6.73;65.45
30682;BME280;17439;48.092;11.842;2023-04-09T06:31:05;96062.66;;;6.79;65.54
30682;BME280;17439;48.092;11.842;2023-04-09T06:33:32;96064.53;;;6.83;65.62
30682;BME280;17439;48.092;11.842;2023-04-09T06:35:58;96071.00;;;6.87;65.44
30682;BME280;17439;48.092;11.842;2023-04-09T06:38:25;96064.53;;;6.94;65.72
30682;BME280;17439;48.092;11.842;2023-04-09T06:40:52;96066.38;;;6.98;65.81
30682;BME280;17439;48.092;11.842;2023-04-09T06:43:18;96062.34;;;7.06;65.79
30682;BME280;17439;48.092;11.842;2023-04-09T06:45:50;96068.25;;;7.13;65.74
30682;BME280;17439;48.092;11.842;2023-04-09T06:48:16;96063.66;;;7.19;65.74
30682;BME280;17439;48.092;11.842;2023-04-09T06:50:43;96066.09;;;7.25;65.86
30682;BME280;17439;48.092;11.842;2023-04-09T06:53:10;96063.38;;;7.31;65.65
30682;BME280;17439;48.092;11.842;2023-04-09T06:55:37;96061.44;;;7.36;65.68
30682;BME280;17439;48.092;11.842;2023-04-09T06:58:03;96070.84;;;7.44;65.14
30682;BME280;17439;48.092;11.842;2023-04-09T07:00:30;96078.41;;;7.47;65.10
30682;BME280;17439;48.092;11.842;2023-04-09T07:02:57;96080.03;;;7.48;65.02
30682;BME280;17439;48.092;11.842;2023-04-09T07:05:24;96072.72;;;7.49;64.84
30682;BME280;17439;48.092;11.842;2023-04-09T07:07:50;96074.38;;;7.50;65.16
30682;BME280;17439;48.092;11.842;2023-04-09T07:10:17;96081.06;;;7.52;65.31
30682;BME280;17439;48.092;11.842;2023-04-09T07:12:43;96067.31;;;7.54;65.53
30682;BME280;17439;48.092;11.842;2023-04-09T07:15:10;96071.88;;;7.58;65.67
30682;BME280;17439;48.092;11.842;2023-04-09T07:17:37;96075.66;;;7.62;65.85
30682;BME280;17439;48.092;11.842;2023-04-09T07:20:04;96078.84;;;7.70;65.79
30682;BME280;17439;48.092;11.842;2023-04-09T07:22:31;96083.69;;;7.78;66.02
30682;BME280;17439;48.092;11.842;2023-04-09T07:24:57;96081.22;;;7.87;66.01
30682;BME280;17439;48.092;11.842;2023-04-09T07:27:25;96081.16;;;7.97;65.81
30682;BME280;17439;48.092;11.842;2023-04-09T07:29:56;96072.47;;;8.05;65.81
30682;BME280;17439;48.092;11.842;2023-04-09T07:32:24;96075.09;;;8.15;66.22
30682;BME280;17439;48.092;11.842;2023-04-09T07:34:51;96066.13;;;8.25;66.37
30682;BME280;17439;48.092;11.842;2023-04-09T07:37:18;96066.06;;;8.35;66.22
30682;BME280;17439;48.092;11.842;2023-04-09T07:39:46;96080.06;;;8.48;66.01
30682;BME280;17439;48.092;11.842;2023-04-09T07:42:13;96082.16;;;8.56;65.82
30682;BME280;17439;48.092;11.842;2023-04-09T07:44:39;96074.25;;;8.65;65.58
30682;BME280;17439;48.092;11.842;2023-04-09T07:47:07;96076.31;;;8.73;65.12
30682;BME280;17439;48.092;11.842;2023-04-09T07:49:35;96083.03;;;8.81;64.92
30682;BME280;17439;48.092;11.842;2023-04-09T07:52:03;96073.25;;;8.85;64.67
30682;BME280;17439;48.092;11.842;2023-04-09T07:54:30;96076.44;;;8.92;64.17
30682;BME280;17439;48.092;11.842;2023-04-09T07:56:57;96085.03;;;8.99;64.00
30682;BME280;17439;48.092;11.842;2023-04-09T07:59:24;96079.84;;;9.03;63.46
30682;BME280;17439;48.092;11.842;2023-04-09T08:01:50;96083.63;;;9.07;63.07
30682;BME280;17439;48.092;11.842;2023-04-09T08:04:17;96082.22;;;9.10;63.10
30682;BME280;17439;48.092;11.842;2023-04-09T08:06:44;96077.63;;;9.10;63.11
30682;BME280;17439;48.092;11.842;2023-04-09T08:09:11;96086.78;;;9.14;63.06
30682;BME280;17439;48.092;11.842;2023-04-09T08:11:37;96073.19;;;9.19;63.26
30682;BME280;17439;48.092;11.842;2023-04-09T08:14:04;96076.66;;;9.25;63.37
30682;BME280;17439;48.092;11.842;2023-04-09T08:16:30;96082.84;;;9.31;62.89
30682;BME280;17439;48.092;11.842;2023-04-09T08:18:57;96076.78;;;9.39;62.89
30682;BME280;17439;48.092;11.842;2023-04-09T08:21:23;96075.63;;;9.45;62.45
30682;BME280;17439;48.092;11.842;2023-04-09T08:23:50;96075.28;;;9.52;61.30
30682;BME280;17439;48.092;11.842;2023-04-09T08:26:17;96087.09;;;9.61;61.78
30682;BME280;17439;48.092;11.842;2023-04-09T08:28:43;96089.94;;;9.70;61.72
30682;BME280;17439;48.092;11.842;2023-04-09T08:31:10;96085.22;;;9.80;61.45
30682;BME280;17439;48.092;11.842;2023-04-09T08:33:37;96083.50;;;9.90;60.83
30682;BME280;17439;48.092;11.842;2023-04-09T08:36:07;96079.53;;;10.01;59.84
30682;BME280;17439;48.092;11.842;2023-04-09T08:38:34;96083.13;;;10.15;60.59
30682;BME280;17439;48.092;11.842;2023-04-09T08:41:01;96088.94;;;10.28;60.37
30682;BME280;17439;48.092;11.842;2023-04-09T08:43:29;96089.31;;;10.40;60.33
30682;BME280;17439;48.092;11.842;2023-04-09T08:46:15;96090.19;;;10.55;57.25
30682;BME280;17439;48.092;11.842;2023-04-09T08:48:44;96090.38;;;10.77;54.98
30682;BME280;17439;48.092;11.842;2023-04-09T08:51:18;96096.75;;;10.86;54.87
30682;BME280;17439;48.092;11.842;2023-04-09T08:53:46;96097.66;;;10.96;55.54
30682;BME280;17439;48.092;11.842;2023-04-09T08:56:13;96094.78;;;11.06;53.39
30682;BME280;17439;48.092;11.842;2023-04-09T08:58:43;96102.84;;;11.11;52.95
30682;BME280;17439;48.092;11.842;2023-04-09T09:01:25;96094.38;;;11.13;53.68
30682;BME280;17439;48.092;11.842;2023-04-09T09:06:21;96089.50;;;11.29;55.60
30682;BME280;17439;48.092;11.842;2023-04-09T09:09:04;96094.22;;;11.37;54.88
30682;BME280;17439;48.092;11.842;2023-04-09T09:11:34;96088.63;;;11.47;56.50
30682;BME280;17439;48.092;11.842;2023-04-09T09:14:03;96086.19;;;11.59;56.52
30682;BME280;17439;48.092;11.842;2023-04-09T09:16:30;96097.25;;;11.77;54.51
30682;BME280;17439;48.092;11.842;2023-04-09T09:18:57;96093.56;;;11.87;53.26
30682;BME280;17439;48.092;11.842;2023-04-09T09:21:25;96087.47;;;11.90;54.04
30682;BME280;17439;48.092;11.842;2023-04-09T09:23:53;96087.13;;;11.96;54.62
30682;BME280;17439;48.092;11.842;2023-04-09T09:26:22;96089.50;;;12.12;50.00
30682;BME280;17439;48.092;11.842;2023-04-09T09:28:49;96088.59;;;12.16;51.74
30682;BME280;17439;48.092;11.842;2023-04-09T09:31:18;96083.38;;;12.20;51.85
30682;BME280;17439;48.092;11.842;2023-04-09T09:33:46;96078.91;;;12.24;52.59
30682;BME280;17439;48.092;11.842;2023-04-09T09:36:14;96076.06;;;12.29;53.01
30682;BME280;17439;48.092;11.842;2023-04-09T09:38:51;96078.88;;;12.38;50.71
30682;BME280;17439;48.092;11.842;2023-04-09T09:41:20;96079.06;;;12.42;52.86
30682;BME280;17439;48.092;11.842;2023-04-09T09:43:46;96083.88;;;12.45;52.73
30682;BME280;17439;48.092;11.842;2023-04-09T09:46:14;96084.75;;;12.54;52.55
30682;BME280;17439;48.092;11.842;2023-04-09T09:48:41;96093.03;;;12.49;53.52
30682;BME280;17439;48.092;11.842;2023-04-09T09:51:09;96090.06;;;12.59;52.71
30682;BME280;17439;48.092;11.842;2023-04-09T09:53:38;96079.75;;;12.70;51.45
30682;BME280;17439;48.092;11.842;2023-04-09T09:56:14;96081.38;;;12.71;51.02
30682;BME280;17439;48.092;11.842;2023-04-09T09:58:46;96089.84;;;12.69;51.76
30682;BME280;17439;48.092;11.842;2023-04-09T10:01:15;96084.78;;;12.77;51.47
30682;BME280;17439;48.092;11.842;2023-04-09T10:03:43;96084.78;;;12.77;52.07
30682;BME280;17439;48.092;11.842;2023-04-09T10:06:11;96075.63;;;12.73;53.31
30682;BME280;17439;48.092;11.842;2023-04-09T10:08:39;96083.91;;;12.90;50.34
30682;BME280;17439;48.092;11.842;2023-04-09T10:11:07;96078.03;;;12.97;51.01
30682;BME280;17439;48.092;11.842;2023-04-09T10:13:37;96071.97;;;13.00;50.94
30682;BME280;17439;48.092;11.842;2023-04-09T10:16:05;96083.19;;;13.07;51.61
30682;BME280;17439;48.092;11.842;2023-04-09T10:18:33;96079.25;;;13.13;52.27
30682;BME280;17439;48.092;11.842;2023-04-09T10:21:13;96081.72;;;13.23;50.58
30682;BME280;17439;48.092;11.842;2023-04-09T10:23:44;96079.22;;;13.36;50.62
30682;BME280;17439;48.092;11.842;2023-04-09T10:26:13;96071.09;;;13.45;49.25
30682;BME280;17439;48.092;11.842;2023-04-09T10:28:40;96064.41;;;13.51;48.47
30682;BME280;17439;48.092;11.842;2023-04-09T10:31:08;96072.75;;;13.54;48.72
30682;BME280;17439;48.092;11.842;2023-04-09T10:33:36;96075.78;;;13.53;49.80
30682;BME280;17439;48.092;11.842;2023-04-09T10:36:09;96079.19;;;13.58;47.74
30682;BME280;17439;48.092;11.842;2023-04-09T10:38:44;96082.06;;;13.62;48.73
30682;BME280;17439;48.092;11.842;2023-04-09T10:41:20;96080.13;;;13.63;49.16
30682;BME280;17439;48.092;11.842;2023-04-09T10:43:47;96080.19;;;13.71;46.03
30682;BME280;17439;48.092;11.842;2023-04-09T10:46:29;96079.69;;;13.69;45.40
30682;BME280;17439;48.092;11.842;2023-04-09T10:49:19;96080.28;;;13.57;46.24
30682;BME280;17439;48.092;11.842;2023-04-09T10:57:20;96085.72;;;13.26;46.74
30682;BME280;17439;48.092;11.842;2023-04-09T10:59:52;96092.06;;;13.13;47.50
30682;BME280;17439;48.092;11.842;2023-04-09T11:07:45;96078.47;;;12.90;48.84
30682;BME280;17439;48.092;11.842;2023-04-09T11:10:12;96077.78;;;12.84;49.40
30682;BME280;17439;48.092;11.842;2023-04-09T11:12:39;96083.28;;;12.93;46.61
30682;BME280;17439;48.092;11.842;2023-04-09T11:15:14;96072.91;;;12.95;46.04
30682;BME280;17439;48.092;11.842;2023-04-09T11:17:41;96072.22;;;12.89;46.00
30682;BME280;17439;48.092;11.842;2023-04-09T11:20:09;96074.88;;;12.81;46.14
30682;BME280;17439;48.092;11.842;2023-04-09T11:22:37;96075.44;;;12.69;46.71
30682;BME280;17439;48.092;11.842;2023-04-09T11:25:04;96067.69;;;12.62;46.74
30682;BME280;17439;48.092;11.842;2023-04-09T11:27:36;96074.56;;;12.60;46.79
30682;BME280;17439;48.092;11.842;2023-04-09T11:30:03;96073.41;;;12.52;47.65
30682;BME280;17439;48.092;11.842;2023-04-09T11:32:30;96070.16;;;12.50;48.33
30682;BME280;17439;48.092;11.842;2023-04-09T11:34:56;96065.84;;;12.49;49.16
30682;BME280;17439;48.092;11.842;2023-04-09T11:37:23;96060.91;;;12.51;50.06
30682;BME280;17439;48.092;11.842;2023-04-09T11:39:50;96065.59;;;12.59;50.01
30682;BME280;17439;48.092;11.842;2023-04-09T11:42:17;96072.72;;;12.69;50.22
30682;BME280;17439;48.092;11.842;2023-04-09T11:44:44;96071.16;;;12.77;50.19
30682;BME280;17439;48.092;11.842;2023-04-09T11:47:12;96075.69;;;12.81;50.35
30682;BME280;17439;48.092;11.842;2023-04-09T11:49:39;96072.78;;;12.78;50.26
30682;BME280;17439;48.092;11.842;2023-04-09T11:52:06;96080.06;;;12.91;50.25
30682;BME280;17439;48.092;11.842;2023-04-09T11:54:33;96074.47;;;12.96;49.88
30682;BME280;17439;48.092;11.842;2023-04-09T11:57:02;96076.72;;;12.94;48.99
30682;BME280;17439;48.092;11.842;2023-04-09T11:59:29;96077.22;;;12.96;49.71
30682;BME280;17439;48.092;11.842;2023-04-09T12:01:56;96082.84;;;13.00;49.73
30682;BME280;17439;48.092;11.842;2023-04-09T12:04:23;96078.19;;;13.00;50.21
30682;BME280;17439;48.092;11.842;2023-04-09T12:06:55;96083.03;;;13.03;48.44
30682;BME280;17439;48.092;11.842;2023-04-09T12:09:22;96079.84;;;13.10;48.76
30682;BME280;17439;48.092;11.842;2023-04-09T12:11:49;96069.03;;;13.19;48.11
30682;BME280;17439;48.092;11.842;2023-04-09T12:14:16;96075.13;;;13.24;48.91
30682;BME280;17439;48.092;11.842;2023-04-09T12:16:43;96074.19;;;13.29;48.59
30682;BME280;17439;48.092;11.842;2023-04-09T12:19:11;96077.41;;;13.54;45.71
30682;BME280;17439;48.092;11.842;2023-04-09T12:24:18;96076.47;;;13.67;45.75
30682;BME280;17439;48.092;11.842;2023-04-09T12:26:45;96077.78;;;13.70;46.84
30682;BME280;17439;48.092;11.842;2023-04-09T12:29:17;96077.47;;;13.71;45.76
30682;BME280;17439;48.092;11.842;2023-04-09T12:31:45;96076.69;;;13.79;48.12
30682;BME280;17439;48.092;11.842;2023-04-09T12:34:12;96084.72;;;13.93;47.32
30682;BME280;17439;48.092;11.842;2023-04-09T12:36:39;96077.88;;;14.05;46.14
30682;BME280;17439;48.092;11.842;2023-04-09T12:39:08;96074.34;;;14.13;46.05
30682;BME280;17439;48.092;11.842;2023-04-09T12:41:34;96077.72;;;14.19;46.43
30682;BME280;17439;48.092;11.842;2023-04-09T12:44:01;96071.81;;;14.25;46.24
30682;BME280;17439;48.092;11.842;2023-04-09T12:46:28;96072.44;;;14.31;46.61
30682;BME280;17439;48.092;11.842;2023-04-09T12:48:54;96076.94;;;14.36;45.40
30682;BME280;17439;48.092;11.842;2023-04-09T12:51:21;96072.28;;;14.36;44.72
30682;BME280;17439;48.092;11.842;2023-04-09T12:53:48;96069.06;;;14.34;43.30
30682;BME280;17439;48.092;11.842;2023-04-09T12:56:14;96069.72;;;14.31;42.78
30682;BME280;17439;48.092;11.842;2023-04-09T12:58:41;96071.31;;;14.23;42.79
30682;BME280;17439;48.092;11.842;2023-04-09T13:01:08;96066.81;;;14.10;43.85
30682;BME280;17439;48.092;11.842;2023-04-09T13:03:34;96070.97;;;13.99;43.73
30682;BME280;17439;48.092;11.842;2023-04-09T13:06:02;96069.97;;;13.86;43.84
30682;BME280;17439;48.092;11.842;2023-04-09T13:08:28;96075.53;;;13.72;44.79
30682;BME280;17439;48.092;11.842;2023-04-09T13:10:55;96073.28;;;13.74;41.94
30682;BME280;17439;48.092;11.842;2023-04-09T13:13:21;96073.72;;;13.58;43.07
30682;BME280;17439;48.092;11.842;2023-04-09T13:15:48;96075.72;;;13.44;44.03
30682;BME280;17439;48.092;11.842;2023-04-09T13:18:15;96070.72;;;13.37;43.45
30682;BME280;17439;48.092;11.842;2023-04-09T13:20:42;96066.66;;;13.26;44.58
30682;BME280;17439;48.092;11.842;2023-04-09T13:23:08;96061.81;;;13.23;44.54
30682;BME280;17439;48.092;11.842;2023-04-09T13:25:35;96071.25;;;13.17;45.41
30682;BME280;17439;48.092;11.842;2023-04-09T13:28:01;96064.53;;;13.14;45.75
30682;BME280;17439;48.092;11.842;2023-04-09T13:30:28;96058.75;;;13.16;45.83
30682;BME280;17439;48.092;11.842;2023-04-09T13:32:55;96060.34;;;13.17;46.14